Time;durP1;ratioP1;P1;durP2;ratioP2;P2;SDS_P1;SDS_P2;PMS_P1;PMS_P2;Temp;Humidity;BMP_temperature;BMP_pressure;BME280_temperature;BME280_humidity;BME280_pressure;Samples;Min_cycle;Max_cycle;Signal;HPM_P1;HPM_P2
2022/09/02 00:01:03;;;;;;;1.10;0.70;;;19.00;44.80;;;;;;6243674;22;20299;-68
2022/09/02 00:03:32;;;;;;;2.33;0.70;;;18.90;44.80;;;;;;6242049;23;20008;-67
2022/09/02 00:05:58;;;;;;;3.15;0.88;;;18.90;44.90;;;;;;6243827;23;20058;-67
2022/09/02 00:08:23;;;;;;;1.00;0.60;;;18.90;45.00;;;;;;6243899;23;20000;-67
2022/09/02 00:10:49;;;;;;;0.93;0.52;;;18.80;45.10;;;;;;6243250;23;20050;-66
2022/09/02 00:13:18;;;;;;;2.15;0.63;;;18.80;45.10;;;;;;6243206;23;20004;-66
2022/09/02 00:15:43;;;;;;;1.05;0.60;;;18.80;45.10;;;;;;6243226;23;20011;-66
2022/09/02 00:18:12;;;;;;;1.85;0.80;;;18.70;45.20;;;;;;6242914;23;20083;-66
2022/09/02 00:20:40;;;;;;;2.10;0.93;;;18.70;45.30;;;;;;6243769;23;20079;-66
2022/09/02 00:23:07;;;;;;;2.08;0.93;;;18.60;45.50;;;;;;6243827;23;20441;-66
2022/09/02 00:25:33;;;;;;;1.08;0.70;;;18.60;45.60;;;;;;6244321;23;19996;-65
2022/09/02 00:27:59;;;;;;;0.63;0.60;;;18.60;45.60;;;;;;6243954;23;20082;-66
2022/09/02 00:30:24;;;;;;;2.65;0.70;;;18.60;45.70;;;;;;6243771;23;20045;-67
2022/09/02 00:32:50;;;;;;;0.90;0.70;;;18.50;45.70;;;;;;6243687;23;20000;-67
2022/09/02 00:35:15;;;;;;;2.03;0.90;;;18.50;45.80;;;;;;6243250;23;20057;-67
2022/09/02 00:37:41;;;;;;;1.40;1.00;;;18.40;45.90;;;;;;6243630;23;20425;-67
2022/09/02 00:40:07;;;;;;;2.50;0.70;;;18.40;46.00;;;;;;6243685;23;19996;-67
2022/09/02 00:42:34;;;;;;;1.83;0.90;;;18.40;46.10;;;;;;6243595;23;20000;-67
2022/09/02 00:45:01;;;;;;;2.13;0.57;;;18.40;46.10;;;;;;6243509;23;19996;-67
2022/09/02 00:47:29;;;;;;;0.77;0.70;;;18.30;46.00;;;;;;6242528;23;20058;-67
2022/09/02 00:49:57;;;;;;;2.47;0.77;;;18.30;46.20;;;;;;6242099;23;20400;-67
2022/09/02 00:52:37;;;;;;;1.15;0.63;;;18.30;46.30;;;;;;6243205;23;20130;-67
2022/09/02 00:55:28;;;;;;;1.10;0.70;;;18.30;46.20;;;;;;6243049;23;20106;-68
2022/09/02 00:58:02;;;;;;;1.60;0.80;;;18.30;46.30;;;;;;6232908;23;20031;-67
2022/09/02 01:00:34;;;;;;;1.88;0.70;;;18.20;46.40;;;;;;6241889;23;20011;-67
2022/09/02 01:03:03;;;;;;;2.17;1.00;;;18.20;46.40;;;;;;6244137;22;20000;-67
2022/09/02 01:05:32;;;;;;;1.27;0.70;;;18.10;46.70;;;;;;6243593;23;20010;-67
2022/09/02 01:07:58;;;;;;;1.45;0.73;;;18.10;47.30;;;;;;6242752;23;20100;-67
2022/09/02 01:10:29;;;;;;;2.63;0.80;;;18.10;46.60;;;;;;6243782;23;20004;-67
2022/09/02 01:13:07;;;;;;;1.85;0.70;;;18.10;46.70;;;;;;6243349;23;20083;-67
2022/09/02 01:15:39;;;;;;;0.50;0.50;;;18.10;46.60;;;;;;6242492;23;20004;-66
2022/09/02 01:18:06;;;;;;;0.98;0.73;;;18.10;46.60;;;;;;6241720;23;20004;-66
2022/09/02 01:20:32;;;;;;;0.73;0.60;;;18.10;46.60;;;;;;6243336;23;20006;-66
2022/09/02 01:22:59;;;;;;;0.70;0.70;;;18.10;46.70;;;;;;6243073;22;20074;-66
2022/09/02 01:25:29;;;;;;;1.23;0.70;;;18.00;46.90;;;;;;6242615;23;20000;-67
2022/09/02 01:28:16;;;;;;;0.52;0.50;;;18.00;46.80;;;;;;6242953;23;20015;-67
2022/09/02 01:30:47;;;;;;;1.40;0.70;;;18.00;46.90;;;;;;6241151;23;20027;-67
2022/09/02 01:33:12;;;;;;;0.60;0.60;;;18.00;47.00;;;;;;6241212;23;20527;-66
2022/09/02 01:35:38;;;;;;;0.68;0.68;;;18.00;47.00;;;;;;6241801;23;20027;-67
2022/09/02 01:38:04;;;;;;;1.98;0.73;;;18.00;47.00;;;;;;6241923;23;20075;-67
2022/09/02 01:40:31;;;;;;;1.00;0.63;;;18.00;47.00;;;;;;6240683;23;20031;-66
2022/09/02 01:43:13;;;;;;;1.40;0.80;;;18.00;46.90;;;;;;6242109;23;20004;-66
2022/09/02 01:45:41;;;;;;;2.55;0.68;;;18.00;46.90;;;;;;6242252;23;20079;-67
2022/09/02 01:48:08;;;;;;;1.42;0.68;;;18.00;46.80;;;;;;6240820;23;20004;-66
2022/09/02 01:50:36;;;;;;;2.90;0.80;;;18.00;46.80;;;;;;6242164;23;20341;-66
2022/09/02 01:53:02;;;;;;;1.52;0.70;;;18.00;46.80;;;;;;6242476;23;20035;-66
2022/09/02 01:55:29;;;;;;;1.00;0.65;;;18.00;46.80;;;;;;6241519;23;20000;-67
2022/09/02 01:57:55;;;;;;;1.58;0.70;;;18.00;46.80;;;;;;6242298;23;20024;-67
2022/09/02 02:00:21;;;;;;;1.60;0.80;;;18.00;46.80;;;;;;6241920;23;20000;-67
2022/09/02 02:02:47;;;;;;;0.85;0.70;;;18.00;46.80;;;;;;6242576;23;20054;-67
2022/09/02 02:05:14;;;;;;;1.15;0.70;;;18.00;46.90;;;;;;6242197;23;20046;-67
2022/09/02 02:07:41;;;;;;;1.10;1.00;;;17.90;46.90;;;;;;6242059;23;20004;-67
2022/09/02 02:10:09;;;;;;;3.17;0.85;;;17.90;46.90;;;;;;6242385;23;20459;-67
2022/09/02 02:12:35;;;;;;;1.17;0.80;;;17.90;46.90;;;;;;6242322;23;20026;-67
2022/09/02 02:15:06;;;;;;;0.90;0.70;;;17.90;46.90;;;;;;6242220;23;20004;-67
2022/09/02 02:17:32;;;;;;;1.00;0.70;;;17.90;46.90;;;;;;6242725;22;20318;-67
2022/09/02 02:19:57;;;;;;;2.22;0.85;;;17.90;46.90;;;;;;6242762;23;20027;-68
2022/09/02 02:22:23;;;;;;;1.38;0.70;;;17.90;47.00;;;;;;6241611;23;20341;-68
2022/09/02 02:24:49;;;;;;;3.05;0.70;;;17.90;47.10;;;;;;6240865;23;20079;-68
2022/09/02 02:27:14;;;;;;;0.98;0.70;;;17.80;47.10;;;;;;6241727;23;20004;-67
2022/09/02 02:29:40;;;;;;;2.67;0.73;;;17.80;47.10;;;;;;6244627;23;20000;-67
2022/09/02 02:32:06;;;;;;;4.43;0.90;;;17.90;47.10;;;;;;6244843;23;20009;-67
2022/09/02 02:34:32;;;;;;;1.95;0.85;;;17.80;47.10;;;;;;6244675;23;20023;-67
2022/09/02 02:36:57;;;;;;;0.75;0.60;;;17.80;47.20;;;;;;6244466;23;20020;-67
2022/09/02 02:39:23;;;;;;;0.60;0.60;;;17.80;47.20;;;;;;6244785;23;19997;-67
2022/09/02 02:41:48;;;;;;;1.88;0.80;;;17.80;47.20;;;;;;6244435;23;20433;-68
2022/09/02 02:44:14;;;;;;;3.03;0.85;;;17.80;47.30;;;;;;6243589;23;20080;-69
2022/09/02 02:46:40;;;;;;;2.63;0.88;;;17.80;47.40;;;;;;6243641;23;20008;-68
2022/09/02 02:49:06;;;;;;;3.38;0.88;;;17.70;47.40;;;;;;6242416;23;20004;-68
2022/09/02 02:51:33;;;;;;;0.77;0.60;;;17.70;47.50;;;;;;6244205;23;20429;-68
2022/09/02 02:54:00;;;;;;;1.05;0.73;;;17.70;47.50;;;;;;6244534;23;20000;-68
2022/09/02 02:56:27;;;;;;;2.60;0.80;;;17.70;47.70;;;;;;6243500;23;20004;-67
2022/09/02 02:58:53;;;;;;;2.30;0.70;;;17.60;47.70;;;;;;6243355;23;20417;-68
2022/09/02 03:01:18;;;;;;;1.77;1.00;;;17.60;47.70;;;;;;6243565;23;20008;-67
2022/09/02 03:03:44;;;;;;;2.50;0.80;;;17.60;47.80;;;;;;6243127;23;20495;-67
2022/09/02 03:06:10;;;;;;;0.93;0.70;;;17.60;47.80;;;;;;6243158;23;20639;-67
2022/09/02 03:08:36;;;;;;;2.22;0.80;;;17.60;47.90;;;;;;6243246;23;20035;-67
2022/09/02 03:11:05;;;;;;;0.88;0.75;;;17.60;48.00;;;;;;6244576;23;20069;-68
2022/09/02 03:13:32;;;;;;;1.65;0.75;;;17.50;47.90;;;;;;6244460;23;20000;-67
2022/09/02 03:15:58;;;;;;;1.83;0.70;;;17.50;48.20;;;;;;6243519;22;20000;-68
2022/09/02 03:18:24;;;;;;;0.80;0.70;;;17.50;48.10;;;;;;6244047;23;20003;-67
2022/09/02 03:20:50;;;;;;;0.82;0.80;;;17.50;48.10;;;;;;6242562;23;20004;-68
2022/09/02 03:23:16;;;;;;;0.90;0.70;;;17.50;48.20;;;;;;6243818;23;20008;-67
2022/09/02 03:25:43;;;;;;;1.73;1.10;;;17.50;48.20;;;;;;6244758;23;20012;-67
2022/09/02 03:28:10;;;;;;;6.03;2.95;;;17.40;48.30;;;;;;6243740;23;20023;-67
2022/09/02 03:30:38;;;;;;;2.08;1.10;;;17.40;48.30;;;;;;6244258;23;20500;-66
2022/09/02 03:33:06;;;;;;;2.35;0.80;;;17.40;48.40;;;;;;6243767;23;20004;-67
2022/09/02 03:35:37;;;;;;;1.25;0.88;;;17.40;48.50;;;;;;6243385;23;20024;-67
2022/09/02 03:38:03;;;;;;;1.33;0.85;;;17.30;48.50;;;;;;6243356;23;20000;-66
2022/09/02 03:40:28;;;;;;;1.05;0.70;;;17.30;48.60;;;;;;6243543;22;20514;-66
2022/09/02 03:42:55;;;;;;;0.73;0.70;;;17.30;48.70;;;;;;6243634;23;20627;-66
2022/09/02 03:45:21;;;;;;;0.70;0.70;;;17.30;48.70;;;;;;6243664;23;20369;-66
2022/09/02 03:47:52;;;;;;;0.88;0.65;;;17.30;48.70;;;;;;6243318;23;20000;-67
2022/09/02 03:50:21;;;;;;;1.48;0.73;;;17.30;48.80;;;;;;6241829;23;20008;-67
2022/09/02 03:52:48;;;;;;;0.90;0.50;;;17.30;48.70;;;;;;6242807;22;20008;-67
2022/09/02 03:55:14;;;;;;;2.45;0.80;;;17.30;48.80;;;;;;6243225;23;20054;-67
2022/09/02 03:57:39;;;;;;;1.60;0.77;;;17.30;48.70;;;;;;6243252;23;20005;-67
2022/09/02 04:00:08;;;;;;;2.35;0.70;;;17.30;48.70;;;;;;6242946;23;20419;-67
2022/09/02 04:02:34;;;;;;;1.70;0.88;;;17.30;48.80;;;;;;6243026;23;20004;-67
2022/09/02 04:04:59;;;;;;;4.72;0.88;;;17.20;48.90;;;;;;6242955;23;19996;-67
2022/09/02 04:07:25;;;;;;;0.82;0.70;;;17.20;49.00;;;;;;6243115;23;20000;-66
2022/09/02 04:09:51;;;;;;;1.35;0.80;;;17.20;49.10;;;;;;6244653;23;20054;-68
2022/09/02 04:12:17;;;;;;;2.58;0.80;;;17.20;49.20;;;;;;6242909;23;20425;-68
2022/09/02 04:14:43;;;;;;;0.70;0.65;;;17.10;49.20;;;;;;6243107;23;20006;-68
2022/09/02 04:17:08;;;;;;;0.80;0.80;;;17.10;49.30;;;;;;6242508;23;20000;-68
2022/09/02 04:19:36;;;;;;;1.80;0.70;;;17.10;49.30;;;;;;6242881;23;20417;-68
2022/09/02 04:22:02;;;;;;;1.35;0.90;;;17.10;49.30;;;;;;6243318;23;20056;-68
2022/09/02 04:24:28;;;;;;;0.90;0.80;;;17.10;49.40;;;;;;6242986;23;20000;-69
2022/09/02 04:26:53;;;;;;;1.00;0.80;;;17.10;50.10;;;;;;6242477;23;20008;-68
2022/09/02 04:29:19;;;;;;;0.95;0.75;;;17.10;49.40;;;;;;6242611;23;20054;-68
2022/09/02 04:31:45;;;;;;;0.80;0.80;;;17.10;49.40;;;;;;6242757;23;20318;-68
2022/09/02 04:34:10;;;;;;;0.93;0.80;;;17.10;49.40;;;;;;6242737;23;19999;-68
2022/09/02 04:36:36;;;;;;;0.98;0.80;;;17.10;49.30;;;;;;6242357;23;20000;-68
2022/09/02 04:39:02;;;;;;;0.75;0.65;;;17.10;49.40;;;;;;6242610;23;20003;-67
2022/09/02 04:41:29;;;;;;;1.25;0.77;;;17.10;49.40;;;;;;6242471;23;19996;-67
2022/09/02 04:43:57;;;;;;;0.95;0.80;;;17.00;49.40;;;;;;6242521;23;20004;-68
2022/09/02 04:46:24;;;;;;;4.22;0.93;;;17.00;49.50;;;;;;6242447;23;20035;-67
2022/09/02 04:48:50;;;;;;;3.05;0.90;;;17.00;49.60;;;;;;6241872;23;20340;-67
2022/09/02 04:51:18;;;;;;;2.90;0.90;;;17.00;49.60;;;;;;6241973;23;20083;-68
2022/09/02 04:53:45;;;;;;;0.90;0.70;;;17.00;49.60;;;;;;6240601;23;20008;-68
2022/09/02 04:56:13;;;;;;;2.03;0.90;;;17.00;49.60;;;;;;6242274;23;19996;-68
2022/09/02 04:58:39;;;;;;;0.93;0.70;;;17.00;49.70;;;;;;6242231;23;20031;-68
2022/09/02 05:01:12;;;;;;;2.55;0.80;;;17.00;49.70;;;;;;6242051;23;20011;-67
2022/09/02 05:03:38;;;;;;;1.02;0.80;;;17.00;49.80;;;;;;6242343;23;20001;-68
2022/09/02 05:06:07;;;;;;;2.53;0.70;;;17.00;49.80;;;;;;6241972;23;20381;-68
2022/09/02 05:08:35;;;;;;;0.85;0.80;;;17.00;49.80;;;;;;6240374;23;20011;-68
2022/09/02 05:11:08;;;;;;;3.10;1.00;;;16.90;49.80;;;;;;6242616;23;20027;-68
2022/09/02 05:13:34;;;;;;;2.00;0.80;;;16.90;49.90;;;;;;6240456;23;20095;-68
2022/09/02 05:16:00;;;;;;;0.77;0.70;;;16.90;49.90;;;;;;6240973;23;20032;-67
2022/09/02 05:18:26;;;;;;;3.05;1.00;;;16.90;50.00;;;;;;6242181;23;20000;-66
2022/09/02 05:20:52;;;;;;;0.80;0.80;;;16.90;49.90;;;;;;6242226;23;20560;-67
2022/09/02 05:23:17;;;;;;;1.83;0.82;;;16.90;50.00;;;;;;6242377;23;20004;-68
2022/09/02 05:25:43;;;;;;;0.70;0.70;;;16.90;50.00;;;;;;6240395;23;20004;-68
2022/09/02 05:28:10;;;;;;;3.00;0.90;;;16.90;50.10;;;;;;6242075;23;20038;-68
2022/09/02 05:30:40;;;;;;;3.35;1.10;;;16.90;50.10;;;;;;6242178;23;20196;-69
2022/09/02 05:33:06;;;;;;;1.52;1.02;;;16.90;50.30;;;;;;6242548;23;20004;-67
2022/09/02 05:35:32;;;;;;;1.02;0.80;;;16.90;50.20;;;;;;6242411;23;20026;-68
2022/09/02 05:37:58;;;;;;;1.80;1.15;;;16.90;50.20;;;;;;6241857;23;20000;-68
2022/09/02 05:40:25;;;;;;;0.90;0.80;;;16.90;50.20;;;;;;6241197;23;20498;-68
2022/09/02 05:42:51;;;;;;;1.30;0.90;;;16.90;50.20;;;;;;6242261;23;20038;-67
2022/09/02 05:45:17;;;;;;;2.20;1.00;;;17.00;50.20;;;;;;6241252;23;20551;-68
2022/09/02 05:47:43;;;;;;;1.92;0.90;;;17.00;50.10;;;;;;6241611;23;20004;-66
2022/09/02 05:50:09;;;;;;;1.27;0.90;;;17.00;50.10;;;;;;6241856;23;20039;-67
2022/09/02 05:52:35;;;;;;;2.30;0.90;;;17.10;50.00;;;;;;6241947;23;20311;-66
2022/09/02 05:55:02;;;;;;;4.45;1.10;;;17.10;50.00;;;;;;6241721;23;19996;-68
2022/09/02 05:57:28;;;;;;;2.78;1.10;;;17.10;50.00;;;;;;6241564;23;20433;-67
2022/09/02 05:59:55;;;;;;;2.28;1.05;;;17.20;50.70;;;;;;6241659;23;20054;-67
2022/09/02 06:02:22;;;;;;;1.35;0.75;;;17.20;50.10;;;;;;6240309;23;20012;-67
2022/09/02 06:04:50;;;;;;;5.20;1.10;;;17.30;49.80;;;;;;6243944;23;20030;-67
2022/09/02 06:07:17;;;;;;;1.33;0.80;;;17.30;49.90;;;;;;6243926;23;20077;-67
2022/09/02 06:09:43;;;;;;;0.80;0.80;;;18.00;49.00;;;;;;6243392;23;20004;-68
2022/09/02 06:12:13;;;;;;;1.33;0.90;;;18.70;47.90;;;;;;6242323;23;20008;-67
2022/09/02 06:14:40;;;;;;;1.33;0.65;;;19.70;46.00;;;;;;6243250;23;20011;-68
2022/09/02 06:17:06;;;;;;;12.77;7.45;;;20.50;44.20;;;;;;6242147;22;20060;-68
2022/09/02 06:19:33;;;;;;;3.38;1.40;;;21.10;42.80;;;;;;6243161;23;19996;-67
2022/09/02 06:22:01;;;;;;;1.25;0.80;;;21.90;41.50;;;;;;6240336;23;20007;-67
2022/09/02 06:24:27;;;;;;;2.25;0.88;;;22.60;40.50;;;;;;6243407;23;20341;-67
2022/09/02 06:26:53;;;;;;;1.45;0.77;;;23.10;39.40;;;;;;6243084;23;20016;-66
2022/09/02 06:29:20;;;;;;;1.75;0.80;;;23.20;38.30;;;;;;6242375;23;20011;-67
2022/09/02 06:31:47;;;;;;;1.58;0.95;;;22.30;39.00;;;;;;6242440;23;20452;-67
2022/09/02 06:34:15;;;;;;;1.55;0.80;;;21.10;40.60;;;;;;6242192;23;20000;-68
2022/09/02 06:36:43;;;;;;;1.42;0.75;;;20.30;42.60;;;;;;6243011;22;20004;-67
2022/09/02 06:39:12;;;;;;;1.15;0.80;;;19.80;43.80;;;;;;6242501;23;20332;-67
2022/09/02 06:41:39;;;;;;;2.33;0.80;;;19.30;44.80;;;;;;6241546;23;20054;-67
2022/09/02 06:44:06;;;;;;;2.35;1.08;;;19.10;45.40;;;;;;6241947;22;20008;-67
2022/09/02 06:46:36;;;;;;;2.03;0.90;;;20.00;44.90;;;;;;6241778;23;20012;-67
2022/09/02 06:49:03;;;;;;;2.28;0.88;;;21.00;43.20;;;;;;6241169;23;20004;-68
2022/09/02 06:51:37;;;;;;;1.55;0.80;;;21.90;41.80;;;;;;6241405;23;20035;-67
2022/09/02 06:54:05;;;;;;;6.38;1.20;;;22.10;40.80;;;;;;6241653;23;20093;-68
2022/09/02 06:56:32;;;;;;;1.65;1.10;;;21.80;40.60;;;;;;6241468;23;20402;-67
2022/09/02 06:58:57;;;;;;;4.32;0.82;;;21.10;41.50;;;;;;6241680;23;20000;-68
2022/09/02 07:01:27;;;;;;;2.42;0.90;;;21.00;42.20;;;;;;6240971;23;20031;-67
2022/09/02 07:06:56;;;;;;;1.95;0.95;;;20.10;43.80;;;;;;6241099;23;20514;-67
2022/09/02 07:09:30;;;;;;;2.47;1.00;;;19.80;44.50;;;;;;6241783;23;20000;-68
2022/09/02 07:11:58;;;;;;;1.45;0.80;;;19.70;44.90;;;;;;6241704;23;20032;-68
2022/09/02 07:14:26;;;;;;;2.42;0.90;;;19.40;45.50;;;;;;6241437;23;20000;-68
2022/09/02 07:16:52;;;;;;;1.70;0.80;;;19.40;45.70;;;;;;6241358;23;20027;-68
2022/09/02 07:19:19;;;;;;;3.08;0.93;;;19.50;46.00;;;;;;6239740;23;20453;-68
2022/09/02 07:21:45;;;;;;;1.63;1.00;;;19.90;45.30;;;;;;6241881;23;20082;-67
2022/09/02 07:24:12;;;;;;;1.70;0.77;;;20.00;45.20;;;;;;6242703;23;20036;-67
2022/09/02 07:26:38;;;;;;;1.58;1.00;;;20.00;45.30;;;;;;6241781;23;20069;-66
2022/09/02 07:29:07;;;;;;;2.22;0.98;;;20.60;45.10;;;;;;6241561;23;20011;-66
2022/09/02 07:31:34;;;;;;;2.25;1.00;;;20.60;44.10;;;;;;6240467;23;20000;-67
2022/09/02 07:34:01;;;;;;;3.42;1.33;;;20.40;44.30;;;;;;6241124;23;20004;-68
2022/09/02 07:36:27;;;;;;;1.25;1.02;;;20.70;44.40;;;;;;6241585;23;20095;-68
2022/09/02 07:38:53;;;;;;;1.85;0.90;;;20.70;44.20;;;;;;6241722;23;20032;-68
2022/09/02 07:41:20;;;;;;;1.00;0.88;;;20.60;44.20;;;;;;6242923;23;20337;-67
2022/09/02 07:43:46;;;;;;;3.05;1.33;;;21.50;43.80;;;;;;6242462;23;20008;-67
2022/09/02 07:46:12;;;;;;;1.35;1.02;;;21.80;42.60;;;;;;6240963;23;20004;-69
2022/09/02 07:48:39;;;;;;;2.88;0.98;;;22.40;41.90;;;;;;6242574;23;20012;-67
2022/09/02 07:51:05;;;;;;;2.08;1.10;;;22.10;42.00;;;;;;6242317;23;20000;-67
2022/09/02 07:53:31;;;;;;;1.67;0.95;;;23.00;41.30;;;;;;6242503;23;20001;-67
2022/09/02 07:55:57;;;;;;;2.53;0.90;;;23.20;40.60;;;;;;6242846;23;20007;-66
2022/09/02 07:58:24;;;;;;;1.83;0.95;;;24.10;40.00;;;;;;6242679;23;20332;-68
2022/09/02 08:00:51;;;;;;;1.35;0.80;;;25.40;38.20;;;;;;6242326;23;20003;-67
2022/09/02 08:03:18;;;;;;;1.73;1.00;;;26.10;36.90;;;;;;6242309;23;20078;-67
2022/09/02 08:05:45;;;;;;;2.92;0.90;;;25.50;36.60;;;;;;6242048;23;20000;-68
2022/09/02 08:08:12;;;;;;;4.43;1.33;;;24.80;37.10;;;;;;6242057;23;20004;-66
2022/09/02 08:10:38;;;;;;;3.03;1.00;;;24.80;37.60;;;;;;6242066;23;20437;-68
2022/09/02 08:13:05;;;;;;;1.40;0.75;;;24.30;38.30;;;;;;6242100;23;20614;-68
2022/09/02 08:15:33;;;;;;;1.90;1.25;;;24.90;38.20;;;;;;6241984;22;20601;-68
2022/09/02 08:17:59;;;;;;;2.00;1.00;;;25.00;37.20;;;;;;6241666;23;20086;-68
2022/09/02 08:20:25;;;;;;;3.42;1.20;;;24.40;38.00;;;;;;6241927;23;19996;-68
2022/09/02 08:22:50;;;;;;;4.03;1.50;;;24.30;38.70;;;;;;6241263;23;20067;-67
2022/09/02 08:25:17;;;;;;;4.07;1.20;;;24.00;38.90;;;;;;6241220;23;20032;-67
2022/09/02 08:27:43;;;;;;;3.05;1.15;;;24.10;39.30;;;;;;6240982;23;20101;-67
2022/09/02 08:30:09;;;;;;;4.85;1.10;;;24.20;38.60;;;;;;6241837;23;20429;-67
2022/09/02 08:32:38;;;;;;;2.05;1.08;;;24.10;38.90;;;;;;6240406;23;20004;-67
2022/09/02 08:35:05;;;;;;;3.72;1.10;;;24.00;39.40;;;;;;6241382;23;19996;-67
2022/09/02 08:37:32;;;;;;;3.75;1.45;;;24.30;39.10;;;;;;6241156;23;20000;-68
2022/09/02 08:40:02;;;;;;;1.90;1.10;;;24.10;39.00;;;;;;6234698;23;20000;-68
2022/09/02 08:42:39;;;;;;;5.45;1.10;;;24.10;39.10;;;;;;6238633;23;20027;-67
2022/09/02 08:45:12;;;;;;;3.40;1.20;;;24.00;39.30;;;;;;6240119;23;19996;-67
2022/09/02 08:47:42;;;;;;;3.50;1.55;;;23.50;39.80;;;;;;6238828;23;20000;-68
2022/09/02 08:50:13;;;;;;;2.08;1.23;;;23.20;40.50;;;;;;6237218;23;20009;-67
2022/09/02 08:52:51;;;;;;;3.05;1.17;;;22.90;41.00;;;;;;6237945;23;19996;-68
2022/09/02 08:55:24;;;;;;;4.20;1.50;;;23.00;41.40;;;;;;6239910;23;20434;-67
2022/09/02 08:57:50;;;;;;;2.72;1.25;;;22.90;41.40;;;;;;6238688;23;20048;-68
2022/09/02 09:00:16;;;;;;;1.98;1.23;;;22.90;41.80;;;;;;6235482;23;20008;-68
2022/09/02 09:03:08;;;;;;;2.45;1.10;;;22.90;41.90;;;;;;6237724;23;20031;-67
2022/09/02 09:05:49;;;;;;;;;;;22.80;41.90;;;;;;6238960;23;20003;-67
2022/09/02 09:08:30;;;;;;;1.50;1.10;;;22.70;42.30;;;;;;6238509;22;19986;-66
2022/09/02 09:11:09;;;;;;;2.73;1.30;;;22.60;42.80;;;;;;6234649;23;20052;-67
2022/09/02 09:13:53;;;;;;;2.70;1.35;;;22.60;42.90;;;;;;6239528;23;20675;-67
2022/09/02 09:16:46;;;;;;;5.10;1.40;;;22.60;42.90;;;;;;6240059;23;20020;-68
2022/09/02 09:19:25;;;;;;;4.90;1.30;;;22.50;43.00;;;;;;6239147;23;20064;-67
2022/09/02 09:21:54;;;;;;;1.58;1.10;;;22.40;43.30;;;;;;6240298;23;20333;-67
2022/09/02 09:24:32;;;;;;;2.50;1.20;;;22.50;43.30;;;;;;6240147;23;20011;-68
2022/09/02 09:26:58;;;;;;;3.55;1.60;;;22.70;43.30;;;;;;6237823;23;20065;-68
2022/09/02 09:29:24;;;;;;;2.75;1.27;;;22.70;43.00;;;;;;6238329;23;20090;-68
2022/09/02 09:31:56;;;;;;;1.92;1.20;;;22.80;42.90;;;;;;6240577;23;20380;-67
2022/09/02 09:34:22;;;;;;;2.88;1.30;;;23.00;42.90;;;;;;6239742;23;20004;-67
2022/09/02 09:36:50;;;;;;;4.05;1.42;;;23.00;42.60;;;;;;6240066;23;20004;-68
2022/09/02 09:39:30;;;;;;;2.30;1.20;;;23.00;42.70;;;;;;6238398;23;20011;-67
2022/09/02 09:42:11;;;;;;;4.15;1.30;;;23.10;42.60;;;;;;6240281;23;20024;-66
2022/09/02 09:44:43;;;;;;;3.33;1.50;;;23.10;42.40;;;;;;6238620;23;20441;-67
2022/09/02 09:47:25;;;;;;;2.80;1.20;;;23.10;42.40;;;;;;6239984;23;20011;-65
2022/09/02 09:49:53;;;;;;;4.93;1.40;;;23.20;42.60;;;;;;6238714;23;20008;-67
2022/09/02 09:52:29;;;;;;;8.18;1.70;;;23.40;42.50;;;;;;6240704;23;20007;-67
2022/09/02 09:55:20;;;;;;;2.85;1.50;;;23.40;42.30;;;;;;6239631;23;20333;-66
2022/09/02 09:57:47;;;;;;;1.58;1.25;;;23.50;42.20;;;;;;6226879;23;20001;-67
2022/09/02 10:00:31;;;;;;;4.70;1.55;;;23.60;42.30;;;;;;6238428;23;20010;-68
2022/09/02 10:03:04;;;;;;;3.25;1.70;;;23.70;42.00;;;;;;6239741;23;20001;-66
2022/09/02 10:05:37;;;;;;;2.17;1.50;;;23.70;41.80;;;;;;6239707;23;20004;-68
2022/09/02 10:08:15;;;;;;;3.47;1.60;;;23.80;41.90;;;;;;6239402;23;20011;-67
2022/09/02 10:11:07;;;;;;;2.45;1.45;;;23.90;41.80;;;;;;6239176;23;20054;-67
2022/09/02 10:13:35;;;;;;;2.47;1.55;;;24.10;41.70;;;;;;6240268;23;20000;-67
2022/09/02 10:16:00;;;;;;;2.90;1.40;;;24.10;41.40;;;;;;6239019;23;20000;-67
2022/09/02 10:18:44;;;;;;;3.88;1.60;;;23.90;41.50;;;;;;6237540;23;20053;-68
2022/09/02 10:21:55;;;;;;;1.75;1.10;;;24.00;41.70;;;;;;6237240;23;20445;-67
2022/09/02 10:24:42;;;;;;;3.83;1.38;;;24.20;41.60;;;;;;6238784;23;20378;-67
2022/09/02 10:27:19;;;;;;;3.25;1.75;;;24.30;41.30;;;;;;6238357;23;20394;-67
2022/09/02 10:30:02;;;;;;;3.58;1.52;;;24.40;41.40;;;;;;6237808;23;20001;-67
2022/09/02 10:33:00;;;;;;;3.08;1.50;;;24.60;41.20;;;;;;6238607;23;20008;-67
2022/09/02 10:35:50;;;;;;;2.67;1.40;;;24.60;40.90;;;;;;6237870;23;20083;-67
2022/09/02 10:38:41;;;;;;;3.28;1.40;;;24.60;41.00;;;;;;6236710;23;20008;-66
2022/09/02 10:41:19;;;;;;;5.22;1.90;;;24.70;41.00;;;;;;6238281;23;20008;-67
2022/09/02 10:44:20;;;;;;;3.22;1.73;;;24.80;40.70;;;;;;6238131;23;20008;-67
2022/09/02 10:47:02;;;;;;;3.60;1.65;;;24.70;40.80;;;;;;6233776;23;20011;-68
2022/09/02 10:49:49;;;;;;;2.35;1.38;;;24.60;40.80;;;;;;6235858;23;20608;-67
2022/09/02 10:52:40;;;;;;;3.08;1.90;;;24.70;41.00;;;;;;6241211;23;20491;-68
2022/09/02 10:55:12;;;;;;;1.63;1.40;;;24.70;40.90;;;;;;6241519;23;20031;-67
2022/09/02 10:58:06;;;;;;;2.90;1.20;;;24.70;41.00;;;;;;6241171;23;19996;-66
2022/09/02 11:00:35;;;;;;;4.63;2.17;;;24.90;41.80;;;;;;6239662;23;20003;-67
2022/09/02 11:03:32;;;;;;;3.53;1.75;;;25.00;40.70;;;;;;6241143;23;20008;-68
2022/09/02 11:06:13;;;;;;;1.40;1.20;;;25.00;40.60;;;;;;6239660;23;20004;-68
2022/09/02 11:08:47;;;;;;;2.70;1.50;;;25.10;40.60;;;;;;6240065;23;20760;-68
2022/09/02 11:11:21;;;;;;;3.55;1.60;;;25.20;40.40;;;;;;6240953;23;20004;-68
2022/09/02 11:13:53;;;;;;;2.92;2.05;;;25.30;40.50;;;;;;6240465;23;20717;-68
2022/09/02 11:16:38;;;;;;;;;;;25.50;40.20;;;;;;6242023;23;20475;-68
2022/09/02 11:19:13;;;;;;;6.43;2.10;;;25.70;40.20;;;;;;6239529;22;19952;-67
2022/09/02 11:22:23;;;;;;;3.22;1.70;;;25.80;39.60;;;;;;6240774;23;20035;-68
2022/09/02 11:24:59;;;;;;;2.30;1.52;;;25.70;39.30;;;;;;6216866;22;20007;-68
2022/09/02 11:27:35;;;;;;;4.63;1.95;;;25.80;39.40;;;;;;6238422;23;20011;-67
2022/09/02 11:30:20;;;;;;;2.10;1.60;;;25.70;38.80;;;;;;6239942;23;20000;-68
2022/09/02 11:33:25;;;;;;;4.00;1.48;;;25.60;39.20;;;;;;6238639;23;20046;-68
2022/09/02 11:35:51;;;;;;;1.63;1.30;;;25.80;39.50;;;;;;6240528;23;20909;-67
2022/09/02 11:38:22;;;;;;;2.85;1.48;;;25.90;38.70;;;;;;6239944;23;19997;-67
2022/09/02 11:40:48;;;;;;;1.83;1.50;;;26.10;38.10;;;;;;6240409;23;20657;-67
2022/09/02 11:43:30;;;;;;;1.63;1.30;;;26.20;37.60;;;;;;6238220;23;20071;-67
2022/09/02 11:46:22;;;;;;;5.68;1.50;;;26.10;37.40;;;;;;6240262;23;20011;-67
2022/09/02 11:49:14;;;;;;;2.15;1.27;;;26.10;36.20;;;;;;6237018;23;20357;-67
2022/09/02 11:52:01;;;;;;;1.40;1.30;;;26.10;36.10;;;;;;6239852;23;20007;-66
2022/09/02 11:54:34;;;;;;;1.80;1.40;;;26.20;36.10;;;;;;6239687;23;20004;-67
2022/09/02 11:57:03;;;;;;;2.22;1.42;;;26.40;35.60;;;;;;6240354;23;20027;-68
2022/09/02 11:59:50;;;;;;;3.60;2.40;;;26.60;35.40;;;;;;6238334;23;20004;-67
2022/09/02 12:02:36;;;;;;;2.88;1.80;;;26.70;35.30;;;;;;6239813;23;20000;-67
2022/09/02 12:05:29;;;;;;;2.88;1.30;;;26.50;35.50;;;;;;6239583;23;20580;-67
2022/09/02 12:08:11;;;;;;;2.33;1.52;;;26.40;35.80;;;;;;6240245;23;20079;-66
2022/09/02 12:10:41;;;;;;;1.65;1.35;;;26.40;35.50;;;;;;6238790;23;20015;-66
2022/09/02 12:13:27;;;;;;;2.30;1.58;;;26.50;35.60;;;;;;6240087;23;20008;-66
2022/09/02 12:16:18;;;;;;;2.97;1.70;;;26.60;34.80;;;;;;6240431;23;20074;-65
2022/09/02 12:19:07;;;;;;;1.80;1.42;;;26.50;35.10;;;;;;6228372;23;20008;-66
2022/09/02 12:21:34;;;;;;;1.75;1.27;;;26.40;35.50;;;;;;6238539;23;20007;-66
2022/09/02 12:23:59;;;;;;;1.73;1.27;;;26.50;34.60;;;;;;6239882;23;20007;-67
2022/09/02 12:26:25;;;;;;;1.20;1.05;;;26.50;34.70;;;;;;6240080;23;20004;-66
2022/09/02 12:28:52;;;;;;;2.17;1.40;;;26.80;34.80;;;;;;6239079;23;20035;-67
2022/09/02 12:31:41;;;;;;;1.40;1.30;;;27.10;34.30;;;;;;6240355;23;20004;-65
2022/09/02 12:34:29;;;;;;;3.88;1.90;;;27.40;34.40;;;;;;6240792;23;20015;-67
2022/09/02 12:36:59;;;;;;;2.17;1.38;;;27.50;33.40;;;;;;6240260;23;20007;-67
2022/09/02 12:39:29;;;;;;;4.13;1.40;;;27.50;33.50;;;;;;6239458;23;20007;-67
2022/09/02 12:42:06;;;;;;;1.30;1.20;;;27.60;33.20;;;;;;6240214;23;20030;-67
2022/09/02 12:45:09;;;;;;;2.22;1.10;;;27.60;32.70;;;;;;6239452;23;20341;-65
2022/09/02 12:48:01;;;;;;;1.23;1.00;;;27.50;33.20;;;;;;6237134;23;20010;-65
2022/09/02 12:50:52;;;;;;;3.17;1.35;;;27.80;32.70;;;;;;6238754;23;20008;-65
2022/09/02 12:53:40;;;;;;;2.37;1.20;;;28.00;32.20;;;;;;6240687;23;20382;-66
2022/09/02 12:56:20;;;;;;;2.33;1.38;;;28.00;31.90;;;;;;6240230;23;20322;-66
2022/09/02 12:58:56;;;;;;;2.15;1.20;;;28.00;32.10;;;;;;6239189;23;20067;-66
2022/09/02 13:01:28;;;;;;;2.60;1.30;;;28.40;31.90;;;;;;6239865;23;20004;-66
2022/09/02 13:04:15;;;;;;;2.10;1.30;;;28.80;31.80;;;;;;6240313;23;20425;-66
2022/09/02 13:06:59;;;;;;;3.13;1.30;;;28.90;30.90;;;;;;6240031;23;20000;-66
2022/09/02 13:09:42;;;;;;;2.17;1.10;;;28.80;30.90;;;;;;6238962;23;20000;-66
2022/09/02 13:12:29;;;;;;;1.15;1.05;;;28.30;30.90;;;;;;6239064;23;20008;-66